createdAt,value
2022-08-04T00:00:07.970Z,99078.47
2022-08-04T00:02:57.799Z,99082.72
2022-08-04T00:05:34.481Z,99079.50
2022-08-04T00:08:22.504Z,99084.94
2022-08-04T00:10:54.772Z,99082.13
2022-08-04T00:13:25.044Z,99086.78
2022-08-04T00:15:54.689Z,99083.94
2022-08-04T00:18:27.927Z,99078.41
2022-08-04T00:21:00.909Z,99081.47
2022-08-04T00:24:11.090Z,99086.13
2022-08-04T00:26:19.146Z,99088.78
2022-08-04T00:28:48.615Z,99086.75
2022-08-04T00:31:17.532Z,99092.97
2022-08-04T00:33:48.034Z,99092.53
2022-08-04T00:36:19.347Z,99097.59
2022-08-04T00:38:47.476Z,99098.31
2022-08-04T00:41:28.082Z,99103.75
2022-08-04T00:44:23.785Z,99100.53
2022-08-04T00:47:12.306Z,99095.38
2022-08-04T00:50:06.616Z,99109.78
2022-08-04T00:52:57.718Z,99107.00
2022-08-04T00:55:50.845Z,99109.69
2022-08-04T00:58:29.101Z,99118.22
2022-08-04T01:01:02.840Z,99117.34
2022-08-04T01:03:46.346Z,99116.50
2022-08-04T01:06:25.862Z,99118.38
2022-08-04T01:09:21.210Z,99121.44
2022-08-04T01:12:11.488Z,99117.81
2022-08-04T01:14:53.136Z,99121.34
2022-08-04T01:17:22.995Z,99119.34
2022-08-04T01:20:06.344Z,99122.81
2022-08-04T01:23:04.940Z,99128.22
2022-08-04T01:26:42.636Z,99114.50
2022-08-04T01:29:11.094Z,99121.50
2022-08-04T01:32:01.008Z,99128.53
2022-08-04T01:34:31.559Z,99124.28
2022-08-04T01:37:05.171Z,99122.31
2022-08-04T01:39:41.770Z,99131.34
2022-08-04T01:42:11.615Z,99126.22
2022-08-04T01:44:43.019Z,99123.84
2022-08-04T01:47:11.562Z,99128.97
2022-08-04T01:49:41.199Z,99116.84
2022-08-04T01:52:11.390Z,99122.31
2022-08-04T01:54:42.950Z,99115.28
2022-08-04T01:57:38.713Z,99119.19
2022-08-04T02:00:02.528Z,99118.75
2022-08-04T02:02:31.109Z,99119.47
2022-08-04T02:04:59.460Z,99131.56
2022-08-04T02:07:37.694Z,99124.09
2022-08-04T02:10:08.450Z,99129.50
2022-08-04T02:12:54.195Z,99131.38
2022-08-04T02:15:29.973Z,99130.16
2022-08-04T02:18:04.835Z,99125.84
2022-08-04T02:20:35.585Z,99124.63
2022-08-04T02:23:05.910Z,99126.16
2022-08-04T02:25:39.179Z,99124.00
2022-08-04T02:28:17.966Z,99129.75
2022-08-04T02:30:58.934Z,99125.81
2022-08-04T02:33:36.162Z,99127.75
2022-08-04T02:36:06.256Z,99123.06
2022-08-04T02:39:00.085Z,99130.03
2022-08-04T02:41:30.782Z,99134.72
2022-08-04T02:44:01.850Z,99133.09
2022-08-04T02:46:33.427Z,99125.25
2022-08-04T02:49:05.225Z,99133.78
2022-08-04T02:51:35.676Z,99126.25
2022-08-04T02:54:06.882Z,99123.47
2022-08-04T02:56:38.652Z,99128.44
2022-08-04T02:59:08.855Z,99127.22
2022-08-04T03:01:57.267Z,99128.38
2022-08-04T03:04:52.547Z,99126.81
2022-08-04T03:07:45.507Z,99137.75
2022-08-04T03:10:49.176Z,99140.03
2022-08-04T03:13:46.338Z,99141.53
2022-08-04T03:17:02.211Z,99139.03
2022-08-04T03:20:00.825Z,99150.28
2022-08-04T03:23:13.073Z,99144.41
2022-08-04T03:26:17.716Z,99140.88
2022-08-04T03:29:35.220Z,99146.44
2022-08-04T03:32:50.274Z,99146.50
2022-08-04T03:35:41.361Z,99148.84
2022-08-04T03:38:28.572Z,99146.13
2022-08-04T03:41:58.203Z,99149.72
2022-08-04T03:44:47.304Z,99151.81
2022-08-04T03:47:42.322Z,99153.22
2022-08-04T03:50:43.347Z,99150.25
2022-08-04T03:53:35.495Z,99160.97
2022-08-04T03:56:41.588Z,99164.63
2022-08-04T03:59:25.659Z,99166.75
2022-08-04T04:02:29.122Z,99164.53
2022-08-04T04:05:28.183Z,99161.13
2022-08-04T04:08:49.813Z,99163.22
2022-08-04T04:11:34.767Z,99168.00
2022-08-04T04:14:48.839Z,99166.94
2022-08-04T04:17:36.894Z,99166.19
2022-08-04T04:20:25.289Z,99162.78
2022-08-04T04:23:05.632Z,99166.78
2022-08-04T04:25:51.104Z,99167.28
2022-08-04T04:28:44.557Z,99171.34
2022-08-04T04:31:33.527Z,99172.31
2022-08-04T04:34:10.794Z,99170.47
2022-08-04T04:36:56.042Z,99182.25
2022-08-04T04:39:32.716Z,99173.84
2022-08-04T04:42:17.348Z,99171.31
2022-08-04T04:45:04.353Z,99171.09
2022-08-04T04:48:08.201Z,99173.25
2022-08-04T04:50:42.310Z,99182.84
2022-08-04T04:53:25.407Z,99182.22
2022-08-04T04:56:02.009Z,99182.78
2022-08-04T04:58:34.085Z,99192.72
2022-08-04T05:01:17.876Z,99185.78
2022-08-04T05:04:10.111Z,99199.22
2022-08-04T05:06:54.836Z,99189.94
2022-08-04T05:09:37.904Z,99192.44
2022-08-04T05:14:31.307Z,99186.66
2022-08-04T05:15:28.956Z,99190.34
2022-08-04T05:18:00.198Z,99200.72
2022-08-04T05:20:35.712Z,99190.63
2022-08-04T05:23:10.389Z,99192.72
2022-08-04T05:25:58.816Z,99196.78
2022-08-04T05:28:34.417Z,99199.63
2022-08-04T05:31:05.459Z,99194.66
2022-08-04T05:33:39.121Z,99194.78
2022-08-04T05:36:18.355Z,99201.13
2022-08-04T05:38:53.947Z,99200.75
2022-08-04T05:41:24.035Z,99199.22
2022-08-04T05:44:02.099Z,99204.72
2022-08-04T05:46:32.134Z,99204.75
2022-08-04T05:49:00.275Z,99206.34
2022-08-04T05:51:30.974Z,99200.41
2022-08-04T05:53:59.957Z,99201.56
2022-08-04T05:56:33.121Z,99194.06
2022-08-04T05:59:03.948Z,99192.06
2022-08-04T06:01:34.126Z,99200.28
2022-08-04T06:04:24.123Z,99203.00
2022-08-04T06:06:53.455Z,99197.41
2022-08-04T06:09:21.470Z,99200.81
2022-08-04T06:12:01.844Z,99195.22
2022-08-04T06:14:40.722Z,99202.63
2022-08-04T06:18:32.737Z,99204.16
2022-08-04T06:20:19.281Z,99201.34
2022-08-04T06:22:54.065Z,99201.75
2022-08-04T06:25:26.980Z,99198.91
2022-08-04T06:27:57.717Z,99202.50
2022-08-04T06:30:27.479Z,99198.50
2022-08-04T06:33:03.718Z,99200.75
2022-08-04T06:35:34.789Z,99205.41
2022-08-04T06:38:04.458Z,99195.78
2022-08-04T06:40:34.703Z,99194.06
2022-08-04T06:43:06.466Z,99193.97
2022-08-04T06:45:36.848Z,99190.28
2022-08-04T06:48:07.497Z,99198.88
2022-08-04T06:51:27.410Z,99196.91
2022-08-04T06:53:26.061Z,99192.16
2022-08-04T06:55:55.362Z,99194.50
2022-08-04T06:58:28.774Z,99188.41
2022-08-04T07:01:01.986Z,99187.44
2022-08-04T07:03:32.138Z,99193.66
2022-08-04T07:06:06.234Z,99191.56
2022-08-04T07:08:36.594Z,99199.34
2022-08-04T07:11:05.605Z,99184.34
2022-08-04T07:13:35.804Z,99185.78
2022-08-04T07:16:04.336Z,99181.75
2022-08-04T07:18:32.687Z,99188.00
2022-08-04T07:21:01.350Z,99181.25
2022-08-04T07:23:29.526Z,99181.94
2022-08-04T07:26:11.644Z,99177.47
2022-08-04T07:28:42.744Z,99173.00
2022-08-04T07:31:34.427Z,99169.31
2022-08-04T07:34:17.436Z,99169.56
2022-08-04T07:36:52.985Z,99170.63
2022-08-04T07:39:27.681Z,99165.03
2022-08-04T07:41:57.838Z,99168.06
2022-08-04T07:44:28.120Z,99169.88
2022-08-04T07:46:56.600Z,99163.00
2022-08-04T07:49:55.203Z,99163.69
2022-08-04T07:52:15.456Z,99163.56
2022-08-04T07:54:44.640Z,99161.44
2022-08-04T07:57:19.620Z,99167.25
2022-08-04T07:59:53.211Z,99165.84
2022-08-04T08:02:22.547Z,99170.84
2022-08-04T08:04:51.275Z,99169.56
2022-08-04T08:07:20.865Z,99165.06
2022-08-04T08:09:49.305Z,99163.34
2022-08-04T08:12:35.823Z,99160.09
2022-08-04T08:15:10.322Z,99152.97
2022-08-04T08:17:57.973Z,99161.41
2022-08-04T08:20:30.517Z,99162.03
2022-08-04T08:22:58.986Z,99154.75
2022-08-04T08:25:27.108Z,99162.59
2022-08-04T08:27:55.706Z,99155.28
2022-08-04T08:30:31.905Z,99152.88
2022-08-04T08:33:05.534Z,99153.16
2022-08-04T08:35:47.382Z,99144.75
2022-08-04T08:38:39.075Z,99142.13
2022-08-04T08:41:27.804Z,99148.72
2022-08-04T08:44:19.217Z,99150.13
2022-08-04T08:47:11.529Z,99151.59
2022-08-04T08:50:05.136Z,99149.00
2022-08-04T08:52:56.558Z,99157.75
2022-08-04T08:55:43.898Z,99154.94
2022-08-04T08:58:32.468Z,99143.47
2022-08-04T09:01:11.364Z,99143.66
2022-08-04T09:04:11.030Z,99140.59
2022-08-04T09:07:29.286Z,99139.66
2022-08-04T09:10:08.307Z,99133.63
2022-08-04T09:12:47.388Z,99137.41
2022-08-04T09:15:18.329Z,99131.06
2022-08-04T09:17:52.675Z,99125.53
2022-08-04T09:20:26.512Z,99126.56
2022-08-04T09:23:07.353Z,99125.69
2022-08-04T09:25:42.386Z,99127.22
2022-08-04T09:28:43.668Z,99129.34
2022-08-04T09:31:14.755Z,99131.78
2022-08-04T09:33:49.244Z,99118.63
2022-08-04T09:36:28.998Z,99120.03
2022-08-04T09:39:10.955Z,99121.59
2022-08-04T09:41:49.026Z,99127.03
2022-08-04T09:44:50.974Z,99122.25
2022-08-04T09:47:20.413Z,99125.69
2022-08-04T09:49:54.380Z,99122.22
2022-08-04T09:52:43.381Z,99112.03
2022-08-04T09:55:20.667Z,99116.00
2022-08-04T09:57:58.907Z,99108.59
2022-08-04T10:00:40.273Z,99104.22
2022-08-04T10:03:19.208Z,99107.31
2022-08-04T10:06:06.814Z,99103.03
2022-08-04T10:09:09.515Z,99101.91
2022-08-04T10:11:56.006Z,99095.13
2022-08-04T10:14:39.833Z,99093.06
2022-08-04T10:17:24.276Z,99097.47
2022-08-04T10:19:55.639Z,99083.53
2022-08-04T10:22:36.962Z,99082.00
2022-08-04T10:26:03.199Z,99083.25
2022-08-04T10:28:21.190Z,99077.22
2022-08-04T10:30:53.294Z,99076.19
2022-08-04T10:33:26.941Z,99078.38
2022-08-04T10:36:07.532Z,99070.59
2022-08-04T10:38:41.956Z,99076.84
2022-08-04T10:41:19.677Z,99073.13
2022-08-04T10:43:59.807Z,99073.59
2022-08-04T10:46:33.874Z,99071.75
2022-08-04T10:49:06.042Z,99065.38
2022-08-04T10:51:57.452Z,99068.63
2022-08-04T10:54:30.540Z,99075.47
2022-08-04T10:57:09.952Z,99069.72
2022-08-04T10:59:44.657Z,99065.81
2022-08-04T11:02:27.195Z,99072.19
2022-08-04T11:05:04.793Z,99070.31
2022-08-04T11:07:35.645Z,99072.19
2022-08-04T11:10:03.797Z,99054.19
2022-08-04T11:12:35.568Z,99059.91
2022-08-04T11:15:08.236Z,99066.44
2022-08-04T11:17:39.388Z,99058.84
2022-08-04T11:20:34.610Z,99066.44
2022-08-04T11:23:09.518Z,99065.81
2022-08-04T11:25:49.721Z,99059.06
2022-08-04T11:28:32.380Z,99060.53
2022-08-04T11:31:05.693Z,99051.00
2022-08-04T11:33:42.470Z,99051.28
2022-08-04T11:36:19.413Z,99047.03
2022-08-04T11:38:53.085Z,99043.72
2022-08-04T11:41:33.062Z,99062.38
2022-08-04T11:44:09.200Z,99053.94
2022-08-04T11:46:43.531Z,99053.50
2022-08-04T11:49:23.266Z,99056.47
2022-08-04T11:51:52.575Z,99040.69
2022-08-04T11:54:22.852Z,99039.41
2022-08-04T11:56:51.115Z,99046.75
2022-08-04T11:59:23.631Z,99036.16
2022-08-04T12:02:20.673Z,99031.75
2022-08-04T12:04:58.105Z,99030.84
2022-08-04T12:07:46.118Z,99025.75
2022-08-04T12:10:41.283Z,99030.09
2022-08-04T12:13:20.114Z,99022.13
2022-08-04T12:15:58.370Z,99013.41
2022-08-04T12:18:35.853Z,99010.56
2022-08-04T12:21:15.874Z,99013.56
2022-08-04T12:23:46.117Z,99013.28
2022-08-04T12:26:22.026Z,99014.94
2022-08-04T12:29:09.657Z,99011.47
2022-08-04T12:31:46.670Z,99005.97
2022-08-04T12:34:18.459Z,99004.31
2022-08-04T12:37:00.092Z,99000.25
2022-08-04T12:39:29.803Z,98998.41
2022-08-04T12:42:04.857Z,99005.19
2022-08-04T12:44:37.893Z,99003.00
2022-08-04T12:47:27.433Z,98993.50
2022-08-04T12:50:03.579Z,99000.69
2022-08-04T12:53:01.470Z,98994.59
2022-08-04T12:55:28.787Z,98994.66
2022-08-04T12:57:58.509Z,98994.56
2022-08-04T13:00:32.136Z,98992.09
2022-08-04T13:03:09.691Z,99000.59
2022-08-04T13:05:41.032Z,98997.28
2022-08-04T13:08:10.825Z,99001.13
2022-08-04T13:10:41.369Z,99000.41
2022-08-04T13:13:17.129Z,98994.25
2022-08-04T13:15:56.177Z,98993.31
2022-08-04T13:18:32.565Z,98996.19
2022-08-04T13:21:19.996Z,99006.75
2022-08-04T13:24:09.932Z,99000.94
2022-08-04T13:26:54.497Z,99008.75
2022-08-04T13:30:00.268Z,99009.25
2022-08-04T13:32:18.501Z,99017.19
2022-08-04T13:34:52.712Z,98999.97
2022-08-04T13:37:23.578Z,99002.75
2022-08-04T13:39:55.843Z,99002.94
2022-08-04T13:42:26.478Z,98998.84
2022-08-04T13:44:58.229Z,98997.75
2022-08-04T13:47:30.435Z,98987.00
2022-08-04T13:50:13.065Z,98997.28
2022-08-04T13:52:42.607Z,98989.81
2022-08-04T13:55:21.039Z,98995.66
2022-08-04T13:57:54.126Z,98987.25
2022-08-04T14:00:30.190Z,98991.41
2022-08-04T14:03:23.957Z,98997.06
2022-08-04T14:06:12.557Z,98994.56
2022-08-04T14:08:49.765Z,98989.16
2022-08-04T14:11:21.081Z,98968.25
2022-08-04T14:14:22.343Z,98978.75
2022-08-04T14:16:58.443Z,98974.94
2022-08-04T14:19:30.737Z,98970.13
2022-08-04T14:22:05.861Z,98975.72
2022-08-04T14:24:33.805Z,98972.63
2022-08-04T14:27:02.141Z,98971.94
2022-08-04T14:29:38.756Z,98974.69
2022-08-04T14:32:14.150Z,98970.00
2022-08-04T14:34:44.794Z,98971.44
2022-08-04T14:37:20.365Z,98973.91
2022-08-04T14:40:18.200Z,98969.13
2022-08-04T14:42:42.937Z,98958.66
2022-08-04T14:45:12.181Z,98966.53
2022-08-04T14:47:41.873Z,98958.22
2022-08-04T14:50:22.883Z,98960.09
2022-08-04T14:53:03.141Z,98965.25
2022-08-04T14:55:31.748Z,98959.72
2022-08-04T14:58:34.749Z,98950.09
2022-08-04T15:00:48.987Z,98953.88
2022-08-04T15:03:19.408Z,98944.47
2022-08-04T15:06:01.818Z,98946.91
2022-08-04T15:08:35.477Z,98948.91
2022-08-04T15:11:04.167Z,98936.81
2022-08-04T15:13:33.573Z,98941.75
2022-08-04T15:16:07.798Z,98941.69
2022-08-04T15:18:37.655Z,98939.13
2022-08-04T15:21:09.007Z,98938.16
2022-08-04T15:23:40.176Z,98933.69
2022-08-04T15:26:12.397Z,98936.13
2022-08-04T15:28:43.508Z,98930.66
2022-08-04T15:32:06.307Z,98915.63
2022-08-04T15:34:00.740Z,98916.28
2022-08-04T15:36:37.279Z,98922.81
2022-08-04T15:39:22.156Z,98910.38
2022-08-04T15:42:15.062Z,98911.56
2022-08-04T15:45:08.453Z,98905.28
2022-08-04T15:47:36.719Z,98912.75
2022-08-04T15:50:08.258Z,98904.38
2022-08-04T15:53:13.047Z,98908.34
2022-08-04T15:55:44.851Z,98903.78
2022-08-04T15:58:17.641Z,98903.00
2022-08-04T16:01:24.960Z,98909.91
2022-08-04T16:03:59.521Z,98906.81
2022-08-04T16:06:45.478Z,98903.63
2022-08-04T16:09:45.433Z,98899.25
2022-08-04T16:12:54.606Z,98906.22
2022-08-04T16:15:47.113Z,98892.44
2022-08-04T16:18:26.198Z,98893.88
2022-08-04T16:20:57.210Z,98890.78
2022-08-04T16:23:53.615Z,98895.09
2022-08-04T16:26:54.990Z,98892.25
2022-08-04T16:29:29.326Z,98885.16
2022-08-04T16:32:16.099Z,98883.31
2022-08-04T16:34:55.488Z,98891.94
2022-08-04T16:37:26.570Z,98889.59
2022-08-04T16:40:28.581Z,98883.47
2022-08-04T16:43:04.446Z,98890.91
2022-08-04T16:45:50.270Z,98882.63
2022-08-04T16:48:21.166Z,98888.97
2022-08-04T16:50:52.591Z,98889.19
2022-08-04T16:54:02.998Z,98889.22
2022-08-04T16:56:11.929Z,98896.44
2022-08-04T16:58:53.697Z,98901.50
2022-08-04T17:01:33.152Z,98902.31
2022-08-04T17:04:08.341Z,98895.97
2022-08-04T17:06:41.786Z,98888.69
2022-08-04T17:09:12.491Z,98895.38
2022-08-04T17:11:41.486Z,98899.09
2022-08-04T17:14:09.565Z,98895.00
2022-08-04T17:16:39.623Z,98898.88
2022-08-04T17:19:23.766Z,98885.31
2022-08-04T17:22:02.370Z,98895.88
2022-08-04T17:24:32.368Z,98890.13
2022-08-04T17:27:00.679Z,98898.38
2022-08-04T17:29:43.340Z,98901.31
2022-08-04T17:32:16.088Z,98900.84
2022-08-04T17:34:50.320Z,98895.47
2022-08-04T17:37:40.658Z,98901.06
2022-08-04T17:40:13.405Z,98895.97
2022-08-04T17:42:42.481Z,98890.97
2022-08-04T17:48:09.593Z,98903.41
2022-08-04T17:50:43.328Z,98897.00
2022-08-04T17:53:13.109Z,98904.03
2022-08-04T17:55:43.844Z,98903.19
2022-08-04T17:58:21.057Z,98903.34
2022-08-04T18:01:10.711Z,98909.28
2022-08-04T18:03:51.814Z,98912.84
2022-08-04T18:06:25.649Z,98914.69
2022-08-04T18:08:58.947Z,98921.00
2022-08-04T18:11:53.463Z,98928.81
2022-08-04T18:14:25.913Z,98932.03
2022-08-04T18:16:56.970Z,98935.59
2022-08-04T18:19:25.239Z,98931.44
2022-08-04T18:22:00.398Z,98934.09
2022-08-04T18:24:35.896Z,98942.19
2022-08-04T18:27:20.134Z,98934.13
2022-08-04T18:29:50.233Z,98939.56
2022-08-04T18:32:36.450Z,98942.63
2022-08-04T18:35:06.998Z,98950.47
2022-08-04T18:38:05.898Z,98952.63
2022-08-04T18:40:36.782Z,98957.25
2022-08-04T18:43:14.858Z,98958.28
2022-08-04T18:45:51.269Z,98955.78
2022-08-04T18:48:19.635Z,98953.72
2022-08-04T18:51:09.777Z,98970.19
2022-08-04T18:53:37.301Z,98960.94
2022-08-04T18:56:15.320Z,98973.50
2022-08-04T18:58:54.677Z,98970.63
2022-08-04T19:01:29.778Z,98970.88
2022-08-04T19:04:32.228Z,98980.97
2022-08-04T19:07:23.409Z,98978.06
2022-08-04T19:09:52.085Z,98980.31
2022-08-04T19:12:27.513Z,98980.97
2022-08-04T19:14:58.019Z,98984.72
2022-08-04T19:17:53.547Z,98980.94
2022-08-04T19:26:01.510Z,98995.13
2022-08-04T19:28:35.475Z,98991.78
2022-08-04T19:31:05.565Z,98989.25
2022-08-04T19:33:59.211Z,98992.31
2022-08-04T19:36:27.857Z,98999.63
2022-08-04T19:38:57.835Z,98998.56
2022-08-04T19:41:27.962Z,98996.72
2022-08-04T19:43:56.197Z,98997.25
2022-08-04T19:46:25.697Z,98998.22
2022-08-04T19:48:59.021Z,99000.72
2022-08-04T19:51:28.131Z,99011.56
2022-08-04T19:56:48.717Z,99003.16
2022-08-04T19:59:16.810Z,99007.63
2022-08-04T20:01:46.076Z,99017.13
2022-08-04T20:04:14.756Z,99006.13
2022-08-04T20:06:43.740Z,99004.53
2022-08-04T20:09:25.275Z,99005.34
2022-08-04T20:11:56.895Z,99014.03
2022-08-04T20:14:32.713Z,99017.56
2022-08-04T20:17:02.287Z,99021.94
2022-08-04T20:19:30.760Z,99021.59
2022-08-04T20:21:59.086Z,99023.59
2022-08-04T20:24:38.799Z,99029.91
2022-08-04T20:27:14.753Z,99026.78
2022-08-04T20:29:48.587Z,99028.03
2022-08-04T20:32:19.913Z,99027.25
2022-08-04T20:34:48.743Z,99037.19
2022-08-04T20:37:17.057Z,99033.66
2022-08-04T20:39:45.489Z,99031.38
2022-08-04T20:42:27.775Z,99037.38
2022-08-04T20:45:02.976Z,99039.06
2022-08-04T20:47:35.640Z,99039.13
2022-08-04T20:50:05.347Z,99028.97
2022-08-04T20:52:37.754Z,99044.72
2022-08-04T20:55:25.462Z,99041.25
2022-08-04T20:58:03.452Z,99039.28
2022-08-04T21:00:32.201Z,99039.72
2022-08-04T21:03:00.658Z,99048.41
2022-08-04T21:05:29.047Z,99038.19
2022-08-04T21:08:00.141Z,99039.41
2022-08-04T21:10:30.022Z,99039.41
2022-08-04T21:12:59.504Z,99037.88
2022-08-04T21:15:57.846Z,99031.59
2022-08-04T21:18:16.832Z,99041.84
2022-08-04T21:20:48.192Z,99038.31
2022-08-04T21:23:16.533Z,99038.34
2022-08-04T21:25:45.686Z,99034.81
2022-08-04T21:28:20.730Z,99035.22
2022-08-04T21:30:54.750Z,99038.78
2022-08-04T21:33:48.990Z,99043.50
2022-08-04T21:36:13.843Z,99041.53
2022-08-04T21:38:51.255Z,99054.09
2022-08-04T21:41:24.733Z,99044.31
2022-08-04T21:46:45.240Z,99044.72
2022-08-04T21:49:13.210Z,99051.78
2022-08-04T21:51:58.694Z,99051.41
2022-08-04T21:54:29.420Z,99056.91
2022-08-04T21:56:57.503Z,99051.41
2022-08-04T21:59:30.514Z,99057.72
2022-08-04T22:02:01.074Z,99046.69
2022-08-04T22:04:29.600Z,99050.97
2022-08-04T22:06:57.697Z,99053.72
2022-08-04T22:09:25.801Z,99053.31
2022-08-04T22:11:57.154Z,99056.03
2022-08-04T22:14:27.647Z,99061.50
2022-08-04T22:17:04.042Z,99065.03
2022-08-04T22:19:40.916Z,99065.81
2022-08-04T22:22:26.141Z,99061.47
2022-08-04T22:24:58.828Z,99065.00
2022-08-04T22:27:47.754Z,99063.44
2022-08-04T22:30:32.999Z,99062.25
2022-08-04T22:33:07.496Z,99063.03
2022-08-04T22:35:49.428Z,99066.13
2022-08-04T22:38:26.763Z,99062.97
2022-08-04T22:41:02.828Z,99062.19
2022-08-04T22:43:34.024Z,99056.69
2022-08-04T22:46:06.394Z,99060.22
2022-08-04T22:48:37.363Z,99063.66
2022-08-04T22:51:07.961Z,99068.75
2022-08-04T22:53:36.870Z,99073.81
2022-08-04T22:56:09.745Z,99068.72
2022-08-04T22:58:40.682Z,99069.06
2022-08-04T23:01:15.727Z,99065.91
2022-08-04T23:03:51.052Z,99072.53
2022-08-04T23:06:28.293Z,99076.03
2022-08-04T23:08:57.020Z,99068.13
2022-08-04T23:11:33.366Z,99072.38
2022-08-04T23:14:04.186Z,99069.19
2022-08-04T23:16:40.454Z,99070.75
2022-08-04T23:19:15.138Z,99069.59
2022-08-04T23:21:47.596Z,99069.59
2022-08-04T23:24:29.758Z,99063.69
2022-08-04T23:26:58.418Z,99064.81
2022-08-04T23:29:27.387Z,99067.56
2022-08-04T23:31:59.886Z,99072.63
2022-08-04T23:34:29.283Z,99073.00
2022-08-04T23:36:59.303Z,99064.78
2022-08-04T23:40:04.007Z,99068.72
2022-08-04T23:42:21.323Z,99066.34
2022-08-04T23:44:49.762Z,99064.00
2022-08-04T23:48:14.789Z,99067.13
2022-08-04T23:50:08.765Z,99070.59
2022-08-04T23:52:37.344Z,99055.69
2022-08-04T23:55:07.623Z,99058.81
2022-08-04T23:58:05.893Z,99063.53
